createdAt,value
2023-01-17T00:00:32.813Z,74.33
2023-01-17T00:02:59.362Z,73.99
2023-01-17T00:05:44.339Z,74.40
2023-01-17T00:08:32.287Z,74.44
2023-01-17T00:10:59.038Z,74.74
2023-01-17T00:13:25.431Z,74.87
2023-01-17T00:15:52.099Z,74.56
2023-01-17T00:18:18.692Z,73.95
2023-01-17T00:21:03.800Z,74.47
2023-01-17T00:23:48.765Z,74.32
2023-01-17T00:26:18.357Z,73.99
2023-01-17T00:28:45.680Z,74.54
2023-01-17T00:31:14.066Z,74.83
2023-01-17T00:33:40.558Z,74.40
2023-01-17T00:36:07.901Z,74.17
2023-01-17T00:38:36.798Z,75.05
2023-01-17T00:41:14.114Z,74.75
2023-01-17T00:43:59.903Z,74.89
2023-01-17T00:46:44.697Z,74.69
2023-01-17T00:49:30.253Z,74.88
2023-01-17T00:52:14.967Z,75.17
2023-01-17T00:54:59.845Z,74.17
2023-01-17T00:57:44.704Z,75.41
2023-01-17T01:00:30.709Z,75.20
2023-01-17T01:03:16.191Z,74.98
2023-01-17T01:06:01.018Z,74.96
2023-01-17T01:08:48.396Z,75.38
2023-01-17T01:11:36.963Z,75.21
2023-01-17T01:14:22.064Z,74.68
2023-01-17T01:17:07.231Z,74.81
2023-01-17T01:19:51.964Z,74.80
2023-01-17T01:22:37.347Z,74.99
2023-01-17T01:25:23.097Z,74.84
2023-01-17T01:28:07.856Z,74.82
2023-01-17T01:30:53.325Z,75.04
2023-01-17T01:33:19.846Z,74.31
2023-01-17T01:35:54.478Z,74.47
2023-01-17T01:38:24.641Z,74.68
2023-01-17T01:40:56.366Z,74.92
2023-01-17T01:43:47.112Z,75.15
2023-01-17T01:46:23.371Z,74.93
2023-01-17T01:49:01.993Z,75.11
2023-01-17T01:51:35.682Z,74.97
2023-01-17T01:54:10.303Z,74.96
2023-01-17T01:56:37.875Z,74.86
2023-01-17T01:59:08.798Z,75.56
2023-01-17T02:01:35.661Z,75.53
2023-01-17T02:04:03.475Z,75.27
2023-01-17T02:06:35.505Z,74.95
2023-01-17T02:09:05.718Z,74.25
2023-01-17T02:11:33.601Z,75.05
2023-01-17T02:14:00.144Z,74.76
2023-01-17T02:16:48.633Z,74.78
2023-01-17T02:19:38.750Z,74.50
2023-01-17T02:22:23.804Z,74.13
2023-01-17T02:25:11.233Z,74.34
2023-01-17T02:27:56.478Z,74.91
2023-01-17T02:30:22.801Z,74.53
2023-01-17T02:33:12.412Z,74.22
2023-01-17T02:36:07.558Z,74.52
2023-01-17T02:38:39.766Z,74.41
2023-01-17T02:41:16.445Z,74.24
2023-01-17T02:43:43.296Z,74.41
2023-01-17T02:46:10.038Z,75.03
2023-01-17T02:48:37.722Z,74.45
2023-01-17T02:51:38.957Z,75.13
2023-01-17T02:54:24.522Z,74.78
2023-01-17T02:57:15.015Z,75.04
2023-01-17T03:00:03.621Z,75.22
2023-01-17T03:02:45.055Z,75.57
2023-01-17T03:05:20.276Z,75.30
2023-01-17T03:07:48.263Z,75.70
2023-01-17T03:10:18.413Z,75.07
2023-01-17T03:12:45.779Z,75.05
2023-01-17T03:15:14.478Z,74.76
2023-01-17T03:17:46.582Z,75.42
2023-01-17T03:20:13.008Z,75.03
2023-01-17T03:22:39.461Z,75.25
2023-01-17T03:25:06.353Z,74.76
2023-01-17T03:27:32.953Z,75.74
2023-01-17T03:29:59.395Z,76.21
2023-01-17T03:32:25.776Z,75.86
2023-01-17T03:34:52.151Z,75.87
2023-01-17T03:37:18.504Z,76.39
2023-01-17T03:39:44.875Z,76.66
2023-01-17T03:42:11.293Z,75.87
2023-01-17T03:44:37.740Z,76.88
2023-01-17T03:47:04.239Z,77.46
2023-01-17T03:49:31.304Z,76.79
2023-01-17T03:51:58.308Z,76.40
2023-01-17T03:54:24.694Z,76.56
2023-01-17T03:56:51.060Z,77.50
2023-01-17T03:59:17.459Z,76.90
2023-01-17T04:01:43.894Z,77.09
2023-01-17T04:04:10.373Z,76.92
2023-01-17T04:06:36.763Z,76.68
2023-01-17T04:09:03.456Z,77.00
2023-01-17T04:11:30.004Z,76.38
2023-01-17T04:13:56.384Z,75.79
2023-01-17T04:16:28.905Z,75.80
2023-01-17T04:18:55.732Z,75.25
2023-01-17T04:21:22.329Z,76.21
2023-01-17T04:23:48.809Z,75.50
2023-01-17T04:26:15.218Z,73.77
2023-01-17T04:28:41.619Z,73.50
2023-01-17T04:31:14.436Z,74.64
2023-01-17T04:33:40.872Z,73.17
2023-01-17T04:36:07.613Z,73.90
2023-01-17T04:38:35.139Z,73.37
2023-01-17T04:41:01.943Z,73.33
2023-01-17T04:43:28.327Z,73.28
2023-01-17T04:45:58.536Z,73.52
2023-01-17T04:48:25.315Z,72.04
2023-01-17T04:50:51.676Z,71.97
2023-01-17T04:53:18.037Z,71.50
2023-01-17T04:55:47.379Z,71.42
2023-01-17T04:58:13.760Z,70.88
2023-01-17T05:00:40.277Z,71.10
2023-01-17T05:03:07.244Z,71.06
2023-01-17T05:05:33.723Z,72.12
2023-01-17T05:08:00.225Z,71.79
2023-01-17T05:10:26.822Z,70.68
2023-01-17T05:12:57.617Z,71.43
2023-01-17T05:15:25.203Z,71.14
2023-01-17T05:17:52.547Z,71.48
2023-01-17T05:20:20.362Z,71.76
2023-01-17T05:22:55.415Z,71.04
2023-01-17T05:25:27.177Z,70.98
2023-01-17T05:27:54.040Z,70.82
2023-01-17T05:30:21.692Z,70.67
2023-01-17T05:32:52.670Z,71.49
2023-01-17T05:35:21.524Z,71.57
2023-01-17T05:37:49.226Z,71.05
2023-01-17T05:40:20.578Z,71.81
2023-01-17T05:42:48.358Z,71.73
2023-01-17T05:45:16.855Z,70.94
2023-01-17T05:47:44.880Z,71.21
2023-01-17T05:50:16.899Z,72.00
2023-01-17T05:53:01.953Z,71.87
2023-01-17T05:55:30.068Z,72.11
2023-01-17T05:57:56.645Z,72.68
2023-01-17T06:00:23.424Z,73.63
2023-01-17T06:02:50.127Z,73.24
2023-01-17T06:05:16.855Z,73.79
2023-01-17T06:07:45.199Z,74.58
2023-01-17T06:10:14.393Z,74.53
2023-01-17T06:12:42.695Z,74.63
2023-01-17T06:15:10.056Z,75.84
2023-01-17T06:17:36.793Z,74.94
2023-01-17T06:20:05.466Z,76.09
2023-01-17T06:22:32.632Z,74.68
2023-01-17T06:25:00.495Z,75.96
2023-01-17T06:27:27.139Z,76.75
2023-01-17T06:29:53.691Z,76.97
2023-01-17T06:32:20.188Z,76.53
2023-01-17T06:34:46.550Z,76.87
2023-01-17T06:37:12.903Z,76.25
2023-01-17T06:39:39.240Z,77.34
2023-01-17T06:42:05.679Z,76.22
2023-01-17T06:44:32.075Z,77.83
2023-01-17T06:46:58.519Z,77.17
2023-01-17T06:49:25.703Z,76.93
2023-01-17T06:51:52.133Z,77.26
2023-01-17T06:54:19.330Z,78.50
2023-01-17T06:56:46.786Z,78.84
2023-01-17T06:59:13.370Z,78.80
2023-01-17T07:01:40.177Z,78.98
2023-01-17T07:04:06.760Z,79.42
2023-01-17T07:06:35.733Z,77.20
2023-01-17T07:09:04.035Z,77.49
2023-01-17T07:11:30.752Z,79.13
2023-01-17T07:13:57.098Z,79.09
2023-01-17T07:16:23.577Z,77.89
2023-01-17T07:18:51.250Z,77.97
2023-01-17T07:21:17.794Z,77.90
2023-01-17T07:23:44.230Z,77.79
2023-01-17T07:26:10.735Z,77.58
2023-01-17T07:28:37.115Z,78.23
2023-01-17T07:31:07.948Z,79.08
2023-01-17T07:33:35.004Z,77.81
2023-01-17T07:36:08.448Z,78.09
2023-01-17T07:38:35.158Z,79.31
2023-01-17T07:41:01.910Z,79.89
2023-01-17T07:43:28.650Z,79.98
2023-01-17T07:45:55.201Z,79.24
2023-01-17T07:48:23.939Z,80.98
2023-01-17T07:50:58.006Z,81.17
2023-01-17T07:53:26.449Z,80.91
2023-01-17T07:55:53.639Z,80.60
2023-01-17T07:58:20.426Z,80.07
2023-01-17T08:00:47.434Z,81.34
2023-01-17T08:03:16.123Z,80.29
2023-01-17T08:05:43.959Z,81.23
2023-01-17T08:08:10.320Z,81.22
2023-01-17T08:10:36.841Z,81.92
2023-01-17T08:13:03.624Z,81.67
2023-01-17T08:15:30.259Z,83.89
2023-01-17T08:17:58.898Z,82.84
2023-01-17T08:20:27.841Z,82.67
2023-01-17T08:22:56.439Z,83.64
2023-01-17T08:25:24.501Z,83.89
2023-01-17T08:27:52.102Z,82.80
2023-01-17T08:30:18.860Z,83.30
2023-01-17T08:32:46.415Z,83.19
2023-01-17T08:35:12.940Z,83.46
2023-01-17T08:37:39.432Z,83.72
2023-01-17T08:40:07.406Z,83.81
2023-01-17T08:42:39.282Z,84.90
2023-01-17T08:45:08.070Z,84.15
2023-01-17T08:47:35.066Z,84.67
2023-01-17T08:50:01.578Z,83.65
2023-01-17T08:52:28.799Z,83.74
2023-01-17T08:54:55.337Z,84.14
2023-01-17T08:57:22.405Z,82.52
2023-01-17T08:59:48.922Z,82.63
2023-01-17T09:02:17.478Z,82.47
2023-01-17T09:04:47.997Z,82.06
2023-01-17T09:07:16.384Z,81.19
2023-01-17T09:09:42.857Z,81.98
2023-01-17T09:12:09.363Z,82.91
2023-01-17T09:14:37.403Z,82.32
2023-01-17T09:17:05.617Z,81.34
2023-01-17T09:19:32.191Z,80.09
2023-01-17T09:21:58.678Z,80.17
2023-01-17T09:24:25.130Z,80.48
2023-01-17T09:26:51.585Z,80.35
2023-01-17T09:29:18.685Z,80.29
2023-01-17T09:31:47.170Z,80.16
2023-01-17T09:34:14.409Z,79.96
2023-01-17T09:36:42.005Z,79.38
2023-01-17T09:39:10.684Z,79.55
2023-01-17T09:41:49.184Z,79.39
2023-01-17T09:44:21.519Z,79.80
2023-01-17T09:46:51.785Z,79.22
2023-01-17T09:49:24.228Z,80.41
2023-01-17T09:51:50.670Z,79.85
2023-01-17T09:54:23.120Z,79.13
2023-01-17T09:57:27.818Z,79.32
2023-01-17T10:00:13.312Z,79.17
2023-01-17T10:03:08.872Z,78.38
2023-01-17T10:05:48.090Z,78.18
2023-01-17T10:08:36.968Z,77.52
2023-01-17T10:11:25.239Z,77.65
2023-01-17T10:14:21.136Z,77.28
2023-01-17T10:16:53.641Z,76.43
2023-01-17T10:19:25.785Z,75.96
2023-01-17T10:22:10.138Z,77.05
2023-01-17T10:24:45.736Z,76.49
2023-01-17T10:27:28.185Z,76.63
2023-01-17T10:29:54.801Z,77.49
2023-01-17T10:32:28.586Z,77.39
2023-01-17T10:35:02.106Z,78.05
2023-01-17T10:37:40.311Z,77.76
2023-01-17T10:40:31.407Z,76.77
2023-01-17T10:43:04.743Z,76.29
2023-01-17T10:45:39.990Z,76.83
2023-01-17T10:48:39.771Z,76.12
2023-01-17T10:51:11.957Z,75.92
2023-01-17T10:53:47.995Z,73.87
2023-01-17T10:56:18.223Z,74.77
2023-01-17T10:58:48.044Z,72.46
2023-01-17T11:01:20.789Z,73.96
2023-01-17T11:03:51.055Z,74.08
2023-01-17T11:06:23.556Z,73.46
2023-01-17T11:08:55.365Z,73.04
2023-01-17T11:11:29.930Z,73.18
2023-01-17T11:13:58.610Z,73.15
2023-01-17T11:16:28.616Z,72.68
2023-01-17T11:19:16.144Z,73.56
2023-01-17T11:21:55.888Z,71.98
2023-01-17T11:24:34.605Z,72.43
2023-01-17T11:27:05.043Z,72.40
2023-01-17T11:29:40.328Z,71.98
2023-01-17T11:32:31.005Z,71.36
2023-01-17T11:35:12.483Z,70.54
2023-01-17T11:37:39.047Z,69.97
2023-01-17T11:40:16.692Z,70.88
2023-01-17T11:42:43.285Z,70.07
2023-01-17T11:45:27.322Z,69.64
2023-01-17T11:48:08.995Z,69.20
2023-01-17T11:50:48.941Z,68.89
2023-01-17T11:53:25.535Z,68.55
2023-01-17T11:55:58.573Z,68.65
2023-01-17T11:58:27.954Z,69.03
2023-01-17T12:01:34.713Z,68.29
2023-01-17T12:04:40.309Z,68.26
2023-01-17T12:07:24.460Z,67.28
2023-01-17T12:10:01.189Z,68.70
2023-01-17T12:13:12.645Z,68.60
2023-01-17T12:16:30.234Z,69.07
2023-01-17T12:19:27.647Z,69.56
2023-01-17T12:21:58.181Z,69.83
2023-01-17T12:24:33.767Z,69.06
2023-01-17T12:27:19.272Z,69.91
2023-01-17T12:30:18.048Z,68.77
2023-01-17T12:33:02.690Z,69.84
2023-01-17T12:35:45.901Z,66.84
2023-01-17T12:38:31.647Z,66.79
2023-01-17T12:41:07.344Z,65.62
2023-01-17T12:43:37.339Z,66.08
2023-01-17T12:46:11.727Z,66.54
2023-01-17T12:48:39.259Z,65.12
2023-01-17T12:51:17.403Z,64.33
2023-01-17T12:54:04.161Z,64.00
2023-01-17T12:56:44.491Z,64.11
2023-01-17T12:59:32.469Z,64.13
2023-01-17T13:02:02.328Z,65.17
2023-01-17T13:04:58.864Z,64.26
2023-01-17T13:07:53.119Z,65.39
2023-01-17T13:10:48.482Z,65.90
2023-01-17T13:13:29.501Z,65.51
2023-01-17T13:16:15.895Z,64.27
2023-01-17T13:18:47.695Z,64.30
2023-01-17T13:21:20.349Z,64.07
2023-01-17T13:24:07.934Z,65.94
2023-01-17T13:26:52.935Z,66.61
2023-01-17T13:29:41.208Z,66.61
2023-01-17T13:32:33.104Z,67.72
2023-01-17T13:35:20.935Z,67.90
2023-01-17T13:38:05.485Z,66.72
2023-01-17T13:40:36.940Z,65.33
2023-01-17T13:43:18.154Z,66.55
2023-01-17T13:45:52.627Z,66.32
2023-01-17T13:48:19.137Z,66.96
2023-01-17T13:50:48.279Z,66.32
2023-01-17T13:53:39.430Z,66.49
2023-01-17T13:56:35.436Z,66.03
2023-01-17T13:59:03.582Z,66.74
2023-01-17T14:01:34.652Z,66.84
2023-01-17T14:04:03.832Z,67.77
2023-01-17T14:06:41.049Z,67.19
2023-01-17T14:09:20.471Z,67.28
2023-01-17T14:11:53.964Z,67.61
2023-01-17T14:14:42.672Z,69.08
2023-01-17T14:17:26.528Z,68.88
2023-01-17T14:19:57.123Z,69.54
2023-01-17T14:22:49.751Z,70.51
2023-01-17T14:25:20.975Z,71.03
2023-01-17T14:27:49.228Z,70.32
2023-01-17T14:30:24.628Z,70.78
2023-01-17T14:33:05.853Z,70.23
2023-01-17T14:35:38.931Z,72.14
2023-01-17T14:38:41.152Z,71.97
2023-01-17T14:41:13.184Z,72.14
2023-01-17T14:43:42.718Z,71.45
2023-01-17T14:46:21.081Z,71.51
2023-01-17T14:48:47.745Z,71.27
2023-01-17T14:51:20.374Z,71.84
2023-01-17T14:53:54.321Z,72.53
2023-01-17T14:56:20.780Z,72.72
2023-01-17T14:58:47.163Z,72.58
2023-01-17T15:01:20.859Z,72.04
2023-01-17T15:03:47.445Z,71.67
2023-01-17T15:06:20.155Z,72.46
2023-01-17T15:08:47.492Z,72.23
2023-01-17T15:11:22.383Z,71.83
2023-01-17T15:13:51.284Z,71.81
2023-01-17T15:16:25.175Z,72.72
2023-01-17T15:18:53.671Z,72.09
2023-01-17T15:21:23.526Z,72.38
2023-01-17T15:23:55.200Z,72.37
2023-01-17T15:26:25.240Z,71.66
2023-01-17T15:28:55.624Z,71.38
2023-01-17T15:31:39.261Z,72.11
2023-01-17T15:34:07.967Z,73.22
2023-01-17T15:36:35.021Z,73.53
2023-01-17T15:39:20.285Z,74.19
2023-01-17T15:41:48.146Z,73.61
2023-01-17T15:44:42.689Z,73.41
2023-01-17T15:47:38.742Z,73.74
2023-01-17T15:50:27.743Z,73.67
2023-01-17T15:52:55.779Z,73.68
2023-01-17T15:55:28.777Z,74.58
2023-01-17T15:57:55.558Z,74.93
2023-01-17T16:00:37.308Z,75.67
2023-01-17T16:03:30.516Z,74.95
2023-01-17T16:06:00.241Z,75.86
2023-01-17T16:08:28.476Z,75.60
2023-01-17T16:11:01.693Z,76.14
2023-01-17T16:13:30.354Z,75.51
2023-01-17T16:16:14.640Z,75.46
2023-01-17T16:18:41.960Z,75.43
2023-01-17T16:21:21.391Z,75.32
2023-01-17T16:23:49.010Z,76.25
2023-01-17T16:26:15.896Z,76.09
2023-01-17T16:28:42.707Z,76.50
2023-01-17T16:31:09.233Z,76.69
2023-01-17T16:33:35.791Z,75.93
2023-01-17T16:36:02.160Z,77.48
2023-01-17T16:38:28.806Z,76.88
2023-01-17T16:40:55.259Z,77.31
2023-01-17T16:43:21.769Z,76.52
2023-01-17T16:45:53.076Z,76.62
2023-01-17T16:48:20.259Z,77.96
2023-01-17T16:50:50.671Z,77.02
2023-01-17T16:53:18.767Z,76.99
2023-01-17T16:55:45.255Z,76.38
2023-01-17T16:58:11.763Z,75.79
2023-01-17T17:00:40.085Z,76.82
2023-01-17T17:03:07.048Z,76.34
2023-01-17T17:05:34.704Z,78.29
2023-01-17T17:08:01.278Z,77.75
2023-01-17T17:10:27.775Z,77.81
2023-01-17T17:12:54.257Z,77.23
2023-01-17T17:15:21.541Z,77.94
2023-01-17T17:17:48.187Z,78.52
2023-01-17T17:20:15.501Z,77.92
2023-01-17T17:22:44.023Z,78.71
2023-01-17T17:25:12.032Z,78.69
2023-01-17T17:27:39.599Z,78.61
2023-01-17T17:30:06.576Z,78.08
2023-01-17T17:32:33.127Z,78.85
2023-01-17T17:34:59.703Z,78.04
2023-01-17T17:37:28.895Z,78.57
2023-01-17T17:39:57.166Z,78.71
2023-01-17T17:42:23.692Z,78.33
2023-01-17T17:44:50.156Z,78.47
2023-01-17T17:47:16.721Z,77.37
2023-01-17T17:49:43.421Z,78.99
2023-01-17T17:52:11.977Z,79.44
2023-01-17T17:54:38.470Z,78.33
2023-01-17T17:57:04.893Z,79.41
2023-01-17T17:59:31.708Z,78.32
2023-01-17T18:01:59.655Z,79.01
2023-01-17T18:04:26.702Z,79.25
2023-01-17T18:06:57.062Z,78.92
2023-01-17T18:09:23.693Z,78.82
2023-01-17T18:11:50.247Z,79.28
2023-01-17T18:14:17.672Z,79.70
2023-01-17T18:16:44.853Z,79.74
2023-01-17T18:19:20.247Z,78.70
2023-01-17T18:21:48.719Z,80.06
2023-01-17T18:24:16.669Z,79.86
2023-01-17T18:26:46.029Z,79.24
2023-01-17T18:29:15.683Z,79.53
2023-01-17T18:31:43.970Z,78.68
2023-01-17T18:34:13.666Z,81.28
2023-01-17T18:36:40.556Z,81.29
2023-01-17T18:39:15.717Z,81.18
2023-01-17T18:41:42.641Z,80.45
2023-01-17T18:44:10.563Z,80.34
2023-01-17T18:46:37.837Z,80.43
2023-01-17T18:49:04.887Z,79.87
2023-01-17T18:51:34.349Z,80.04
2023-01-17T18:54:04.914Z,79.93
2023-01-17T18:56:36.105Z,80.38
2023-01-17T18:59:05.684Z,80.52
2023-01-17T19:01:35.495Z,79.64
2023-01-17T19:04:04.507Z,80.89
2023-01-17T19:06:33.555Z,81.35
2023-01-17T19:09:00.315Z,80.39
2023-01-17T19:11:28.049Z,80.83
2023-01-17T19:13:55.046Z,81.01
2023-01-17T19:16:34.580Z,80.89
2023-01-17T19:19:04.220Z,81.33
2023-01-17T19:21:31.124Z,80.53
2023-01-17T19:23:57.973Z,81.05
2023-01-17T19:26:27.087Z,81.11
2023-01-17T19:28:56.130Z,81.50
2023-01-17T19:31:25.230Z,81.03
2023-01-17T19:33:54.575Z,81.06
2023-01-17T19:36:23.883Z,81.53
2023-01-17T19:39:03.347Z,81.82
2023-01-17T19:41:31.473Z,81.21
2023-01-17T19:44:03.192Z,80.17
2023-01-17T19:46:30.053Z,80.97
2023-01-17T19:48:57.853Z,81.36
2023-01-17T19:51:26.653Z,81.75
2023-01-17T19:53:56.440Z,81.73
2023-01-17T19:56:25.784Z,81.65
2023-01-17T19:58:52.783Z,81.52
2023-01-17T20:01:23.956Z,82.00
2023-01-17T20:03:52.648Z,82.04
2023-01-17T20:06:21.922Z,81.05
2023-01-17T20:08:48.793Z,80.84
2023-01-17T20:11:19.596Z,80.95
2023-01-17T20:13:47.864Z,81.22
2023-01-17T20:16:16.562Z,80.32
2023-01-17T20:18:43.765Z,81.60
2023-01-17T20:21:17.774Z,80.37
2023-01-17T20:23:46.809Z,82.42
2023-01-17T20:26:19.722Z,79.92
2023-01-17T20:28:48.771Z,81.56
2023-01-17T20:31:17.904Z,80.11
2023-01-17T20:33:46.825Z,80.58
2023-01-17T20:36:15.926Z,80.69
2023-01-17T20:38:43.827Z,80.16
2023-01-17T20:41:20.814Z,82.14
2023-01-17T20:43:52.351Z,81.16
2023-01-17T20:46:20.676Z,80.15
2023-01-17T20:48:52.382Z,79.37
2023-01-17T20:51:19.800Z,79.83
2023-01-17T20:53:51.673Z,80.60
2023-01-17T20:56:20.097Z,80.44
2023-01-17T20:58:46.535Z,79.76
2023-01-17T21:01:19.705Z,81.25
2023-01-17T21:03:48.167Z,81.94
2023-01-17T21:06:15.338Z,83.51
2023-01-17T21:08:44.547Z,82.38
2023-01-17T21:11:13.473Z,83.59
2023-01-17T21:13:40.004Z,85.65
2023-01-17T21:16:08.230Z,84.96
2023-01-17T21:18:35.824Z,85.40
2023-01-17T21:21:05.601Z,87.19
2023-01-17T21:23:32.019Z,86.12
2023-01-17T21:25:58.515Z,85.10
2023-01-17T21:28:27.626Z,86.14
2023-01-17T21:30:54.832Z,86.67
2023-01-17T21:33:23.335Z,89.30
2023-01-17T21:35:49.830Z,89.30
2023-01-17T21:38:16.596Z,90.55
2023-01-17T21:40:43.893Z,90.39
2023-01-17T21:43:11.454Z,90.14
2023-01-17T21:45:39.356Z,90.80
2023-01-17T21:48:06.782Z,90.87
2023-01-17T21:50:34.397Z,91.32
2023-01-17T21:53:00.786Z,90.67
2023-01-17T21:55:45.694Z,91.15
2023-01-17T21:58:32.541Z,88.63
2023-01-17T22:01:15.584Z,91.01
2023-01-17T22:03:42.545Z,89.67
2023-01-17T22:06:10.231Z,88.21
2023-01-17T22:08:37.156Z,87.76
2023-01-17T22:11:08.601Z,89.44
2023-01-17T22:13:35.971Z,88.94
2023-01-17T22:16:05.447Z,89.04
2023-01-17T22:18:38.882Z,88.77
2023-01-17T22:21:08.793Z,88.15
2023-01-17T22:23:36.358Z,88.22
2023-01-17T22:26:09.562Z,90.11
2023-01-17T22:28:38.104Z,90.95
2023-01-17T22:31:17.037Z,90.91
2023-01-17T22:33:45.249Z,90.83
2023-01-17T22:36:16.502Z,91.71
2023-01-17T22:38:44.157Z,91.21
2023-01-17T22:41:13.359Z,90.65
2023-01-17T22:43:42.270Z,92.02
2023-01-17T22:46:10.732Z,92.35
2023-01-17T22:48:38.142Z,90.50
2023-01-17T22:51:06.625Z,91.36
2023-01-17T22:53:33.131Z,90.51
2023-01-17T22:56:07.765Z,89.68
2023-01-17T22:58:34.989Z,88.81
2023-01-17T23:01:06.607Z,89.31
2023-01-17T23:03:33.848Z,89.53
2023-01-17T23:06:12.946Z,90.32
2023-01-17T23:08:41.476Z,89.25
2023-01-17T23:11:41.179Z,91.18
2023-01-17T23:14:30.495Z,91.49
2023-01-17T23:17:18.015Z,89.81
2023-01-17T23:19:50.802Z,90.22
2023-01-17T23:22:20.153Z,91.60
2023-01-17T23:24:52.548Z,90.20
2023-01-17T23:27:48.302Z,90.23
2023-01-17T23:30:19.953Z,89.19
2023-01-17T23:32:49.264Z,89.52
2023-01-17T23:35:17.130Z,90.78
2023-01-17T23:38:02.597Z,90.36
2023-01-17T23:40:31.613Z,92.39
2023-01-17T23:43:16.587Z,92.70
2023-01-17T23:45:43.340Z,92.15
2023-01-17T23:48:10.604Z,92.33
2023-01-17T23:50:39.254Z,91.41
2023-01-17T23:53:08.568Z,92.97
2023-01-17T23:55:40.238Z,92.26
2023-01-17T23:58:09.720Z,93.29
